createdAt,value
2018-11-04T00:00:18.436Z,20.60
2018-11-04T00:02:48.898Z,17.23
2018-11-04T00:05:19.470Z,19.30
2018-11-04T00:07:50.528Z,16.00
2018-11-04T00:10:20.740Z,17.50
2018-11-04T00:12:50.927Z,18.33
2018-11-04T00:15:21.000Z,16.23
2018-11-04T00:17:50.995Z,18.20
2018-11-04T00:20:21.411Z,16.47
2018-11-04T00:22:51.613Z,17.23
2018-11-04T00:25:21.657Z,18.43
2018-11-04T00:27:51.639Z,15.33
2018-11-04T00:30:21.648Z,16.17
2018-11-04T00:32:51.652Z,20.83
2018-11-04T00:35:21.669Z,18.17
2018-11-04T00:37:52.005Z,19.53
2018-11-04T00:40:22.001Z,17.63
2018-11-04T00:42:52.029Z,16.50
2018-11-04T00:45:22.073Z,16.63
2018-11-04T00:47:52.572Z,17.53
2018-11-04T00:50:22.576Z,16.40
2018-11-04T00:52:52.591Z,17.43
2018-11-04T00:55:22.614Z,19.93
2018-11-04T00:57:52.620Z,18.23
2018-11-04T01:00:22.660Z,18.50
2018-11-04T01:02:52.688Z,23.53
2018-11-04T01:05:22.733Z,20.73
2018-11-04T01:07:52.920Z,18.10
2018-11-04T01:10:23.156Z,19.07
2018-11-04T01:12:53.179Z,18.00
2018-11-04T01:15:23.220Z,17.53
2018-11-04T01:17:53.251Z,18.70
2018-11-04T01:20:23.274Z,24.33
2018-11-04T01:22:53.303Z,20.40
2018-11-04T01:25:23.512Z,20.60
2018-11-04T01:27:53.538Z,18.60
2018-11-04T01:30:23.592Z,22.93
2018-11-04T01:32:53.763Z,18.87
2018-11-04T01:35:23.786Z,20.77
2018-11-04T01:37:53.971Z,19.83
2018-11-04T01:40:23.999Z,24.90
2018-11-04T01:42:54.027Z,20.27
2018-11-04T01:45:24.026Z,21.30
2018-11-04T01:47:54.249Z,23.90
2018-11-04T01:50:24.248Z,24.63
2018-11-04T01:52:54.275Z,23.20
2018-11-04T01:55:24.289Z,21.67
2018-11-04T01:57:54.312Z,21.17
2018-11-04T02:00:24.656Z,21.90
2018-11-04T02:02:54.695Z,22.40
2018-11-04T02:05:24.687Z,26.83
2018-11-04T02:07:54.757Z,24.83
2018-11-04T02:10:24.744Z,27.93
2018-11-04T02:12:54.772Z,30.30
2018-11-04T02:15:24.812Z,29.77
2018-11-04T02:17:54.816Z,24.93
2018-11-04T02:20:25.168Z,26.60
2018-11-04T02:22:55.219Z,27.23
2018-11-04T02:25:25.227Z,27.73
2018-11-04T02:27:55.248Z,26.30
2018-11-04T02:30:25.473Z,26.53
2018-11-04T02:32:55.509Z,27.77
2018-11-04T02:35:25.703Z,32.53
2018-11-04T02:37:55.750Z,28.87
2018-11-04T02:40:25.744Z,31.33
2018-11-04T02:42:55.763Z,28.50
2018-11-04T02:45:25.759Z,33.57
2018-11-04T02:47:55.979Z,32.93
2018-11-04T02:50:25.979Z,27.83
2018-11-04T02:52:56.459Z,24.53
2018-11-04T02:55:26.466Z,28.00
2018-11-04T02:57:56.495Z,32.90
2018-11-04T03:00:26.504Z,30.63
2018-11-04T03:02:56.544Z,28.30
2018-11-04T03:05:26.580Z,30.57
2018-11-04T03:07:56.635Z,32.87
2018-11-04T03:10:26.665Z,32.57
2018-11-04T03:12:56.676Z,27.73
2018-11-04T03:15:26.698Z,31.60
2018-11-04T03:17:56.744Z,31.60
2018-11-04T03:20:26.758Z,28.63
2018-11-04T03:22:56.775Z,28.30
2018-11-04T03:25:26.803Z,31.90
2018-11-04T03:27:56.802Z,28.00
2018-11-04T03:30:26.842Z,27.40
2018-11-04T03:32:57.084Z,29.17
2018-11-04T03:35:27.113Z,31.53
2018-11-04T03:37:57.140Z,29.03
2018-11-04T03:40:27.145Z,30.50
2018-11-04T03:42:57.347Z,22.07
2018-11-04T03:45:27.591Z,28.13
2018-11-04T03:47:57.963Z,31.50
2018-11-04T03:50:27.991Z,29.47
2018-11-04T03:53:03.456Z,26.23
2018-11-04T03:55:34.045Z,29.67
2018-11-04T03:58:04.570Z,25.97
2018-11-04T04:00:34.568Z,27.30
2018-11-04T04:03:05.017Z,31.70
2018-11-04T04:05:35.011Z,27.63
2018-11-04T04:08:05.142Z,27.40
2018-11-04T04:10:35.184Z,31.87
2018-11-04T04:13:05.694Z,27.53
2018-11-04T04:15:35.736Z,28.40
2018-11-04T04:18:06.259Z,31.83
2018-11-04T04:20:36.492Z,28.80
2018-11-04T04:23:13.472Z,23.77
2018-11-04T04:25:43.488Z,30.50
2018-11-04T04:28:13.872Z,32.37
2018-11-04T04:30:43.904Z,27.87
2018-11-04T04:33:13.899Z,26.57
2018-11-04T04:35:43.909Z,27.60
2018-11-04T04:38:13.949Z,25.97
2018-11-04T04:40:44.013Z,29.33
2018-11-04T04:43:14.257Z,30.70
2018-11-04T04:45:44.263Z,26.10
2018-11-04T04:48:14.302Z,29.13
2018-11-04T04:50:44.527Z,28.90
2018-11-04T04:53:14.524Z,26.23
2018-11-04T04:55:44.580Z,28.50
2018-11-04T04:58:14.575Z,29.57
2018-11-04T05:00:44.594Z,27.83
2018-11-04T05:03:14.620Z,29.03
2018-11-04T05:05:44.653Z,27.40
2018-11-04T05:08:14.667Z,31.40
2018-11-04T05:10:44.682Z,34.10
2018-11-04T05:13:14.917Z,34.07
2018-11-04T05:15:44.907Z,25.63
2018-11-04T05:18:14.927Z,30.97
2018-11-04T05:20:51.770Z,32.90
2018-11-04T05:23:22.535Z,31.53
2018-11-04T05:25:52.656Z,33.40
2018-11-04T05:28:22.707Z,29.67
2018-11-04T05:30:52.779Z,31.57
2018-11-04T05:33:22.986Z,29.97
2018-11-04T05:35:53.036Z,32.23
2018-11-04T05:38:23.128Z,31.93
2018-11-04T05:40:53.292Z,32.30
2018-11-04T05:43:23.319Z,36.43
2018-11-04T05:45:53.355Z,34.50
2018-11-04T05:48:23.347Z,33.10
2018-11-04T05:50:53.498Z,33.73
2018-11-04T05:53:23.503Z,30.37
2018-11-04T05:55:53.575Z,35.73
2018-11-04T05:58:23.601Z,33.97
2018-11-04T06:00:53.642Z,33.10
2018-11-04T06:03:23.672Z,34.93
2018-11-04T06:05:53.691Z,37.93
2018-11-04T06:08:23.721Z,37.37
2018-11-04T06:10:53.729Z,30.60
2018-11-04T06:13:23.746Z,32.00
2018-11-04T06:15:53.892Z,33.53
2018-11-04T06:18:23.937Z,34.90
2018-11-04T06:20:53.934Z,32.27
2018-11-04T06:23:23.971Z,34.33
2018-11-04T06:25:53.974Z,36.97
2018-11-04T06:28:24.416Z,37.40
2018-11-04T06:30:54.416Z,38.30
2018-11-04T06:33:24.450Z,32.13
2018-11-04T06:35:54.451Z,32.67
2018-11-04T06:38:24.476Z,38.90
2018-11-04T06:40:54.677Z,34.27
2018-11-04T06:43:24.879Z,34.97
2018-11-04T06:45:55.656Z,34.57
2018-11-04T06:48:25.855Z,31.73
2018-11-04T06:50:55.886Z,31.40
2018-11-04T06:53:25.919Z,36.33
2018-11-04T06:55:55.947Z,29.10
2018-11-04T06:58:25.991Z,32.90
2018-11-04T07:00:55.994Z,34.00
2018-11-04T07:03:26.017Z,30.80
2018-11-04T07:05:56.595Z,31.77
2018-11-04T07:08:26.891Z,30.97
2018-11-04T07:10:57.443Z,33.08
2018-11-04T07:13:27.465Z,30.30
2018-11-04T07:15:58.048Z,28.92
2018-11-04T07:18:28.635Z,26.10
2018-11-04T07:20:59.201Z,29.82
2018-11-04T07:23:29.797Z,31.70
2018-11-04T07:26:00.364Z,31.48
2018-11-04T07:28:30.976Z,33.88
2018-11-04T07:31:01.734Z,31.35
2018-11-04T07:33:32.511Z,31.90
2018-11-04T07:36:03.089Z,30.00
2018-11-04T07:38:33.675Z,28.35
2018-11-04T07:41:04.231Z,28.02
2018-11-04T07:43:34.272Z,31.30
2018-11-04T07:46:05.611Z,28.50
2018-11-04T07:48:36.508Z,30.02
2018-11-04T07:51:07.167Z,31.17
2018-11-04T07:53:37.709Z,29.40
2018-11-04T07:56:08.308Z,29.42
2018-11-04T07:58:39.095Z,28.98
2018-11-04T08:01:09.818Z,29.70
2018-11-04T08:03:40.886Z,31.97
2018-11-04T08:06:11.668Z,31.15
2018-11-04T08:08:42.754Z,29.05
2018-11-04T08:11:13.341Z,29.55
2018-11-04T08:13:44.020Z,33.10
2018-11-04T08:16:14.695Z,27.17
2018-11-04T08:18:45.279Z,26.62
2018-11-04T08:21:15.969Z,25.97
2018-11-04T08:23:46.677Z,32.85
2018-11-04T08:26:17.278Z,27.70
2018-11-04T08:28:48.044Z,32.55
2018-11-04T08:31:25.091Z,26.90
2018-11-04T08:33:55.693Z,32.75
2018-11-04T08:36:26.268Z,28.83
2018-11-04T08:38:56.866Z,27.85
2018-11-04T08:41:27.423Z,28.38
2018-11-04T08:43:58.008Z,28.67
2018-11-04T08:46:28.558Z,27.17
2018-11-04T08:48:59.357Z,29.00
2018-11-04T08:51:30.102Z,27.52
2018-11-04T08:54:00.687Z,29.23
2018-11-04T08:56:31.271Z,28.52
2018-11-04T08:59:02.100Z,27.48
2018-11-04T09:01:32.860Z,27.75
2018-11-04T09:04:03.427Z,29.23
2018-11-04T09:06:34.232Z,27.75
2018-11-04T09:09:06.490Z,26.75
2018-11-04T09:11:37.074Z,27.87
2018-11-04T09:14:07.733Z,28.32
2018-11-04T09:16:38.446Z,25.23
2018-11-04T09:19:09.051Z,28.45
2018-11-04T09:21:39.694Z,26.75
2018-11-04T09:24:10.439Z,30.05
2018-11-04T09:26:41.082Z,28.62
2018-11-04T09:29:12.214Z,34.15
2018-11-04T09:31:42.967Z,32.73
2018-11-04T09:34:13.639Z,28.90
2018-11-04T09:36:44.429Z,26.05
2018-11-04T09:39:14.997Z,26.80
2018-11-04T09:41:45.606Z,31.25
2018-11-04T09:44:16.241Z,27.22
2018-11-04T09:46:46.837Z,28.12
2018-11-04T09:49:17.479Z,29.18
2018-11-04T09:51:48.051Z,28.62
2018-11-04T09:54:18.612Z,29.80
2018-11-04T09:56:49.378Z,28.47
2018-11-04T09:59:20.128Z,25.27
2018-11-04T10:01:50.821Z,27.80
2018-11-04T10:04:21.387Z,26.68
2018-11-04T10:06:52.130Z,27.07
2018-11-04T10:09:22.864Z,28.20
2018-11-04T10:11:53.471Z,26.37
2018-11-04T10:14:24.048Z,30.62
2018-11-04T10:16:54.648Z,27.27
2018-11-04T10:19:25.636Z,33.05
2018-11-04T10:21:55.986Z,28.95
2018-11-04T10:24:26.585Z,31.25
2018-11-04T10:26:57.172Z,30.02
2018-11-04T10:29:27.776Z,29.57
2018-11-04T10:31:58.346Z,28.27
2018-11-04T10:34:29.118Z,28.32
2018-11-04T10:36:59.749Z,27.77
2018-11-04T10:39:30.546Z,27.40
2018-11-04T10:42:01.307Z,31.93
2018-11-04T10:44:31.907Z,25.02
2018-11-04T10:47:02.475Z,27.98
2018-11-04T10:49:33.391Z,26.77
2018-11-04T10:52:04.496Z,29.72
2018-11-04T10:54:35.079Z,29.67
2018-11-04T10:57:05.973Z,28.92
2018-11-04T10:59:36.800Z,26.68
2018-11-04T11:02:07.568Z,27.37
2018-11-04T11:04:38.213Z,28.50
2018-11-04T11:07:09.615Z,27.65
2018-11-04T11:09:40.396Z,30.32
2018-11-04T11:12:11.003Z,28.35
2018-11-04T11:14:41.580Z,27.90
2018-11-04T11:17:12.316Z,30.43
2018-11-04T11:19:42.897Z,28.40
2018-11-04T11:22:13.464Z,30.48
2018-11-04T11:24:44.064Z,29.05
2018-11-04T11:27:14.663Z,27.75
2018-11-04T11:29:45.243Z,26.93
2018-11-04T11:32:15.799Z,30.25
2018-11-04T11:34:46.892Z,28.50
2018-11-04T11:37:17.522Z,30.45
2018-11-04T11:39:48.267Z,28.35
2018-11-04T11:42:18.819Z,30.40
2018-11-04T11:44:49.459Z,25.50
2018-11-04T11:47:20.187Z,27.17
2018-11-04T11:49:50.759Z,29.12
2018-11-04T11:52:21.397Z,31.42
2018-11-04T11:54:52.459Z,29.18
2018-11-04T11:57:23.051Z,29.25
2018-11-04T12:00:00.407Z,31.87
2018-11-04T12:02:30.971Z,31.77
2018-11-04T12:05:01.597Z,26.15
2018-11-04T12:07:32.336Z,27.98
2018-11-04T12:10:03.251Z,30.72
2018-11-04T12:12:33.849Z,27.60
2018-11-04T12:15:04.653Z,31.23
2018-11-04T12:17:35.488Z,28.38
2018-11-04T12:20:08.101Z,28.70
2018-11-04T12:22:38.667Z,28.52
2018-11-04T12:25:10.524Z,29.30
2018-11-04T12:27:41.299Z,26.17
2018-11-04T12:30:13.692Z,27.05
2018-11-04T12:32:44.309Z,28.65
2018-11-04T12:35:15.206Z,32.85
2018-11-04T12:37:45.994Z,26.73
2018-11-04T12:40:16.800Z,26.68
2018-11-04T12:42:47.432Z,29.70
2018-11-04T12:45:18.019Z,27.22
2018-11-04T12:47:50.262Z,24.90
2018-11-04T12:50:23.697Z,29.50
2018-11-04T12:52:56.255Z,28.77
2018-11-04T12:55:29.188Z,29.63
2018-11-04T12:58:02.599Z,27.22
2018-11-04T13:00:35.427Z,26.25
2018-11-04T13:03:09.050Z,26.10
2018-11-04T13:05:41.727Z,26.05
2018-11-04T13:08:14.572Z,26.37
2018-11-04T13:10:48.196Z,27.62
2018-11-04T13:13:21.375Z,28.23
2018-11-04T13:15:54.786Z,24.02
2018-11-04T13:18:27.058Z,25.72
2018-11-04T13:21:00.138Z,25.05
2018-11-04T13:23:34.080Z,29.23
2018-11-04T13:26:08.070Z,25.35
2018-11-04T13:28:40.934Z,24.80
2018-11-04T13:31:14.231Z,26.02
2018-11-04T13:33:47.076Z,23.55
2018-11-04T13:36:17.731Z,27.50
2018-11-04T13:38:48.283Z,25.82
2018-11-04T13:41:19.080Z,24.25
2018-11-04T13:43:49.637Z,25.80
2018-11-04T13:46:20.231Z,23.77
2018-11-04T13:48:50.810Z,25.68
2018-11-04T13:51:21.398Z,24.40
2018-11-04T13:53:51.973Z,26.73
2018-11-04T13:56:22.747Z,25.48
2018-11-04T13:58:53.894Z,29.57
2018-11-04T14:01:24.472Z,80.38
2018-11-04T14:03:55.064Z,28.35
2018-11-04T14:06:25.615Z,28.35
2018-11-04T14:08:56.216Z,28.32
2018-11-04T14:11:26.782Z,26.70
2018-11-04T14:13:57.375Z,27.13
2018-11-04T14:16:27.969Z,27.77
2018-11-04T14:18:58.607Z,24.80
2018-11-04T14:21:29.223Z,25.43
2018-11-04T14:23:59.800Z,26.73
2018-11-04T14:26:30.366Z,23.90
2018-11-04T14:29:00.996Z,28.67
2018-11-04T14:31:31.602Z,22.22
2018-11-04T14:34:02.403Z,25.00
2018-11-04T14:36:32.978Z,25.45
2018-11-04T14:39:04.567Z,26.45
2018-11-04T14:41:35.180Z,23.65
2018-11-04T14:44:06.420Z,24.18
2018-11-04T14:46:36.995Z,23.77
2018-11-04T14:49:07.596Z,28.07
2018-11-04T14:51:38.159Z,29.20
2018-11-04T14:54:08.927Z,28.00
2018-11-04T14:56:39.654Z,35.05
2018-11-04T14:59:10.228Z,28.80
2018-11-04T15:01:40.895Z,27.17
2018-11-04T15:04:11.671Z,25.85
2018-11-04T15:06:42.264Z,25.52
2018-11-04T15:09:12.891Z,27.62
2018-11-04T15:11:43.463Z,25.23
2018-11-04T15:14:14.059Z,24.90
2018-11-04T15:16:44.683Z,27.40
2018-11-04T15:19:15.267Z,25.02
2018-11-04T15:21:46.269Z,30.80
2018-11-04T15:24:16.974Z,27.22
2018-11-04T15:26:47.664Z,26.60
2018-11-04T15:29:18.280Z,30.52
2018-11-04T15:31:48.835Z,47.65
2018-11-04T15:34:19.502Z,43.98
2018-11-04T15:36:50.202Z,34.43
2018-11-04T15:39:20.784Z,30.77
2018-11-04T15:41:51.559Z,28.77
2018-11-04T15:44:22.158Z,25.17
2018-11-04T15:46:53.110Z,23.80
2018-11-04T15:49:24.030Z,27.30
2018-11-04T15:51:54.615Z,30.75
2018-11-04T15:54:25.203Z,36.95
2018-11-04T15:57:00.055Z,28.50
2018-11-04T15:59:30.803Z,24.52
2018-11-04T16:02:01.409Z,20.97
2018-11-04T16:04:44.539Z,23.92
2018-11-04T16:07:02.790Z,27.80
2018-11-04T16:41:30.927Z,22.90
2018-11-04T16:44:01.640Z,21.73
2018-11-04T16:46:33.235Z,24.25
2018-11-04T16:49:03.908Z,21.70
2018-11-04T16:51:34.503Z,22.07
2018-11-04T16:54:05.528Z,20.60
2018-11-04T16:56:36.380Z,21.95
2018-11-04T16:59:07.247Z,23.18
2018-11-04T17:01:37.839Z,20.62
2018-11-04T17:04:08.828Z,21.23
2018-11-04T17:06:39.572Z,24.70
2018-11-04T17:09:10.478Z,20.72
2018-11-04T17:11:41.307Z,21.90
2018-11-04T17:14:11.876Z,19.15
2018-11-04T17:16:42.657Z,19.37
2018-11-04T17:19:13.259Z,21.52
2018-11-04T17:21:44.026Z,18.62
2018-11-04T17:24:14.810Z,18.37
2018-11-04T17:26:45.391Z,18.80
2018-11-04T17:29:16.211Z,18.45
2018-11-04T17:31:46.819Z,18.85
2018-11-04T17:34:17.439Z,19.48
2018-11-04T17:36:48.000Z,19.07
2018-11-04T17:39:18.611Z,20.35
2018-11-04T17:41:49.208Z,19.07
2018-11-04T17:44:20.120Z,18.92
2018-11-04T17:46:50.772Z,18.60
2018-11-04T17:49:21.576Z,16.23
2018-11-04T17:51:52.482Z,18.70
2018-11-04T17:54:23.275Z,18.87
2018-11-04T17:56:54.052Z,18.42
2018-11-04T17:59:24.704Z,16.82
2018-11-04T18:01:55.323Z,16.82
2018-11-04T18:04:26.151Z,19.48
2018-11-04T18:06:56.820Z,17.73
2018-11-04T18:09:27.390Z,17.60
2018-11-04T18:11:57.983Z,18.37
2018-11-04T18:14:28.608Z,17.23
2018-11-04T18:16:59.365Z,20.82
2018-11-04T18:19:30.278Z,20.45
2018-11-04T18:22:00.882Z,19.25
2018-11-04T18:24:31.481Z,17.27
2018-11-04T18:27:02.557Z,17.12
2018-11-04T18:29:33.223Z,22.13
2018-11-04T18:32:03.885Z,22.15
2018-11-04T18:34:34.648Z,19.42
2018-11-04T18:37:05.759Z,22.02
2018-11-04T18:39:36.323Z,17.77
2018-11-04T18:42:06.927Z,21.37
2018-11-04T18:44:37.621Z,18.45
2018-11-04T18:47:08.350Z,16.17
2018-11-04T18:49:39.136Z,17.27
2018-11-04T18:52:10.488Z,19.32
2018-11-04T18:54:41.116Z,18.27
2018-11-04T18:57:12.594Z,16.93
2018-11-04T18:59:43.408Z,16.97
2018-11-04T19:02:14.254Z,16.97
2018-11-04T19:04:44.872Z,20.17
2018-11-04T19:07:15.775Z,18.37
2018-11-04T19:09:46.397Z,19.32
2018-11-04T19:12:17.604Z,18.80
2018-11-04T19:14:48.163Z,17.10
2018-11-04T19:17:18.777Z,18.90
2018-11-04T19:19:49.579Z,18.95
2018-11-04T19:22:20.152Z,19.20
2018-11-04T19:24:50.761Z,17.90
2018-11-04T19:27:21.352Z,18.45
2018-11-04T19:29:51.971Z,18.90
2018-11-04T19:32:22.588Z,20.77
2018-11-04T19:34:53.208Z,19.60
2018-11-04T19:37:25.880Z,21.82
2018-11-04T19:39:56.584Z,17.92
2018-11-04T19:42:28.222Z,19.60
2018-11-04T19:44:58.859Z,18.12
2018-11-04T19:47:29.643Z,16.32
2018-11-04T19:50:00.278Z,22.22
2018-11-04T19:52:31.197Z,18.60
2018-11-04T19:55:02.017Z,20.55
2018-11-04T19:57:32.797Z,18.82
2018-11-04T20:00:03.997Z,17.35
2018-11-04T20:02:34.915Z,17.48
2018-11-04T20:05:07.503Z,19.57
2018-11-04T20:07:38.307Z,21.25
2018-11-04T20:10:11.810Z,17.57
2018-11-04T20:12:47.828Z,18.27
2018-11-04T20:15:18.997Z,18.02
2018-11-04T20:17:49.988Z,18.27
2018-11-04T20:20:23.309Z,18.07
2018-11-04T20:22:54.138Z,18.07
2018-11-04T20:25:30.205Z,18.55
2018-11-04T20:28:01.067Z,18.20
2018-11-04T20:30:31.872Z,16.42
2018-11-04T20:33:04.444Z,17.62
2018-11-04T20:35:35.012Z,16.90
2018-11-04T20:38:06.389Z,15.15
2018-11-04T20:40:42.425Z,15.55
2018-11-04T20:43:13.012Z,16.07
2018-11-04T20:45:43.572Z,17.98
2018-11-04T20:48:19.620Z,16.23
2018-11-04T20:50:55.686Z,17.82
2018-11-04T20:53:26.291Z,15.20
2018-11-04T20:56:02.170Z,14.55
2018-11-04T20:58:33.026Z,15.50
2018-11-04T21:01:04.079Z,16.32
2018-11-04T21:03:34.751Z,15.90
2018-11-04T21:06:05.679Z,16.35
2018-11-04T21:08:36.475Z,14.23
2018-11-04T21:11:07.228Z,15.70
2018-11-04T21:13:37.831Z,16.37
2018-11-04T21:16:08.561Z,13.93
2018-11-04T21:18:39.291Z,16.37
2018-11-04T21:21:09.926Z,17.17
2018-11-04T21:23:40.528Z,17.35
2018-11-04T21:26:11.288Z,15.38
2018-11-04T21:28:42.038Z,14.63
2018-11-04T21:31:12.757Z,14.85
2018-11-04T21:33:43.484Z,13.95
2018-11-04T21:36:14.067Z,13.83
2018-11-04T21:38:44.858Z,14.23
2018-11-04T21:41:15.447Z,13.75
2018-11-04T21:43:46.238Z,14.13
2018-11-04T21:46:16.824Z,15.08
2018-11-04T21:48:47.600Z,12.03
2018-11-04T21:51:18.542Z,15.25
2018-11-04T21:53:49.220Z,13.72
2018-11-04T21:56:19.985Z,16.15
2018-11-04T21:58:50.687Z,13.83
2018-11-04T22:01:21.343Z,14.68
2018-11-04T22:03:52.141Z,14.40
2018-11-04T22:06:22.704Z,14.95
2018-11-04T22:08:53.513Z,15.10
2018-11-04T22:11:24.151Z,13.43
2018-11-04T22:13:55.199Z,14.85
2018-11-04T22:16:25.861Z,17.45
2018-11-04T22:18:56.471Z,16.10
2018-11-04T22:21:27.055Z,15.48
2018-11-04T22:23:57.991Z,15.28
2018-11-04T22:26:28.560Z,14.03
2018-11-04T22:28:59.347Z,13.08
2018-11-04T22:31:29.908Z,14.75
2018-11-04T22:34:00.512Z,14.50
2018-11-04T22:36:31.161Z,14.80
2018-11-04T22:39:01.874Z,14.73
2018-11-04T22:41:32.430Z,14.73
2018-11-04T22:44:03.381Z,12.10
2018-11-04T22:46:33.987Z,15.05
2018-11-04T22:49:04.888Z,15.23
2018-11-04T22:51:35.460Z,13.18
2018-11-04T22:54:06.091Z,12.85
2018-11-04T22:56:37.059Z,13.15
2018-11-04T22:59:08.147Z,13.43
2018-11-04T23:01:38.977Z,14.35
2018-11-04T23:04:09.840Z,15.40
2018-11-04T23:06:40.525Z,13.25
2018-11-04T23:09:11.696Z,12.13
2018-11-04T23:11:42.317Z,14.73
2018-11-04T23:14:12.948Z,16.20
2018-11-04T23:16:43.725Z,12.65
2018-11-04T23:19:15.009Z,14.00
2018-11-04T23:21:45.607Z,13.62
2018-11-04T23:24:16.175Z,13.50
2018-11-04T23:26:46.782Z,12.95
2018-11-04T23:29:17.551Z,12.47
2018-11-04T23:31:48.155Z,15.45
2018-11-04T23:34:18.734Z,13.50
2018-11-04T23:36:49.363Z,15.55
2018-11-04T23:39:19.910Z,13.83
2018-11-04T23:41:50.512Z,14.38
2018-11-04T23:44:21.099Z,13.60
2018-11-04T23:46:51.707Z,14.70
2018-11-04T23:49:22.335Z,13.05
2018-11-04T23:51:52.919Z,13.72
2018-11-04T23:54:23.807Z,13.38
2018-11-04T23:56:54.586Z,13.90
2018-11-04T23:59:25.166Z,14.10
